createdAt,value
2018-09-30T00:00:33.406Z,99661.17
2018-09-30T00:01:35.990Z,99658.16
2018-09-30T00:02:38.558Z,99656.83
2018-09-30T00:03:41.144Z,99663.50
2018-09-30T00:04:43.690Z,99664.84
2018-09-30T00:05:46.359Z,99656.83
2018-09-30T00:06:48.935Z,99654.16
2018-09-30T00:07:51.483Z,99656.83
2018-09-30T00:08:54.050Z,99663.84
2018-09-30T00:09:56.614Z,99667.02
2018-09-30T00:10:59.294Z,99657.16
2018-09-30T00:12:02.793Z,99661.17
2018-09-30T00:13:05.387Z,99658.50
2018-09-30T00:14:07.966Z,99656.34
2018-09-30T00:15:10.526Z,99652.34
2018-09-30T00:16:13.206Z,99657.16
2018-09-30T00:17:15.775Z,99649.67
2018-09-30T00:18:18.335Z,99642.48
2018-09-30T00:19:20.950Z,99650.48
2018-09-30T00:20:23.522Z,99643.48
2018-09-30T00:21:26.236Z,99643.81
2018-09-30T00:22:28.789Z,99638.99
2018-09-30T00:25:39.891Z,99630.14
2018-09-30T00:26:48.175Z,99623.64
2018-09-30T00:27:50.716Z,99623.47
2018-09-30T00:28:53.270Z,99624.65
2018-09-30T00:29:55.822Z,99623.62
2018-09-30T00:30:58.370Z,99628.14
2018-09-30T00:32:01.014Z,99623.28
2018-09-30T00:33:03.598Z,99623.62
2018-09-30T00:34:11.730Z,99621.80
2018-09-30T00:35:14.278Z,99620.95
2018-09-30T00:36:16.908Z,99624.47
2018-09-30T00:37:19.454Z,99619.13
2018-09-30T00:38:22.062Z,99614.45
2018-09-30T00:39:25.138Z,99615.45
2018-09-30T00:40:27.711Z,99612.79
2018-09-30T00:41:30.278Z,99625.47
2018-09-30T00:42:32.958Z,99619.64
2018-09-30T00:43:35.548Z,99620.13
2018-09-30T00:44:38.118Z,99624.46
2018-09-30T00:45:40.682Z,99616.45
2018-09-30T00:46:43.286Z,99615.45
2018-09-30T00:47:45.949Z,99612.78
2018-09-30T00:48:48.522Z,99612.78
2018-09-30T00:49:51.081Z,99608.78
2018-09-30T00:50:53.650Z,99606.44
2018-09-30T00:51:56.226Z,99601.11
2018-09-30T00:52:58.888Z,99598.77
2018-09-30T00:54:01.568Z,99602.28
2018-09-30T00:55:04.206Z,99604.11
2018-09-30T00:56:06.782Z,99602.28
2018-09-30T00:57:09.358Z,99597.77
2018-09-30T00:58:12.021Z,99596.95
2018-09-30T00:59:14.602Z,99596.77
2018-09-30T01:00:17.174Z,99596.77
2018-09-30T01:01:19.782Z,99598.09
2018-09-30T01:02:22.354Z,99593.76
2018-09-30T01:03:25.030Z,99600.28
2018-09-30T01:04:27.648Z,99599.43
2018-09-30T01:05:30.258Z,99595.43
2018-09-30T01:06:32.819Z,99599.77
2018-09-30T01:07:35.422Z,99599.77
2018-09-30T01:08:38.090Z,99599.43
2018-09-30T01:09:40.657Z,99603.44
2018-09-30T01:10:43.250Z,99603.77
2018-09-30T01:11:45.838Z,99606.44
2018-09-30T01:12:48.406Z,99606.44
2018-09-30T01:13:51.126Z,99606.44
2018-09-30T01:14:53.678Z,99610.96
2018-09-30T01:15:56.236Z,99607.77
2018-09-30T01:16:58.806Z,99602.10
2018-09-30T01:18:01.374Z,99607.77
2018-09-30T01:19:04.086Z,99608.78
2018-09-30T01:20:06.690Z,99602.10
2018-09-30T01:21:09.254Z,99604.28
2018-09-30T01:22:11.850Z,99602.44
2018-09-30T01:23:14.434Z,99598.61
2018-09-30T01:24:17.012Z,99601.10
2018-09-30T01:25:19.582Z,99599.43
2018-09-30T01:26:22.158Z,99596.77
2018-09-30T01:27:24.718Z,99592.76
2018-09-30T01:28:27.529Z,99594.09
2018-09-30T01:29:30.190Z,99595.09
2018-09-30T01:30:32.750Z,99593.76
2018-09-30T01:31:35.298Z,99598.09
2018-09-30T01:32:37.912Z,99590.61
2018-09-30T01:33:40.465Z,99596.28
2018-09-30T01:34:43.126Z,99596.09
2018-09-30T01:35:45.689Z,99594.77
2018-09-30T01:36:48.322Z,99596.61
2018-09-30T01:37:51.117Z,99604.11
2018-09-30T01:38:53.760Z,99597.10
2018-09-30T01:39:56.402Z,99595.77
2018-09-30T01:40:58.950Z,99600.10
2018-09-30T01:42:01.502Z,99596.09
2018-09-30T01:43:04.078Z,99589.09
2018-09-30T01:44:06.702Z,99585.09
2018-09-30T01:45:09.364Z,99584.75
2018-09-30T01:46:11.929Z,99583.42
2018-09-30T01:47:14.510Z,99581.60
2018-09-30T01:48:17.074Z,99580.75
2018-09-30T01:49:19.662Z,99585.76
2018-09-30T01:50:22.345Z,99586.61
2018-09-30T01:51:24.918Z,99590.09
2018-09-30T01:52:38.598Z,99583.42
2018-09-30T01:53:41.178Z,99585.76
2018-09-30T01:54:43.770Z,99586.09
2018-09-30T01:55:46.435Z,99582.61
2018-09-30T01:56:48.997Z,99583.42
2018-09-30T01:57:51.578Z,99581.75
2018-09-30T01:58:54.206Z,99587.09
2018-09-30T01:59:56.806Z,99587.94
2018-09-30T02:00:59.462Z,99584.94
2018-09-30T02:02:02.046Z,99585.42
2018-09-30T02:03:04.698Z,99585.42
2018-09-30T02:04:07.280Z,99590.28
2018-09-30T02:05:09.843Z,99593.44
2018-09-30T02:06:12.413Z,99595.62
2018-09-30T02:07:14.970Z,99596.44
2018-09-30T02:08:17.534Z,99592.09
2018-09-30T02:09:20.090Z,99595.28
2018-09-30T02:10:22.726Z,99598.77
2018-09-30T02:11:25.424Z,99605.96
2018-09-30T02:12:27.996Z,99602.63
2018-09-30T02:13:30.566Z,99598.10
2018-09-30T02:14:33.161Z,99595.62
2018-09-30T02:15:35.790Z,99591.61
2018-09-30T02:16:38.450Z,99591.09
2018-09-30T02:17:41.024Z,99594.61
2018-09-30T02:18:43.614Z,99586.28
2018-09-30T02:19:46.194Z,99591.95
2018-09-30T02:20:48.770Z,99588.42
2018-09-30T02:21:51.430Z,99592.43
2018-09-30T02:22:54.012Z,99588.42
2018-09-30T02:23:56.570Z,99589.43
2018-09-30T02:24:59.162Z,99586.28
2018-09-30T02:26:01.710Z,99591.61
2018-09-30T02:27:04.418Z,99588.42
2018-09-30T02:28:06.991Z,99591.09
2018-09-30T02:29:09.570Z,99588.42
2018-09-30T02:30:12.150Z,99590.61
2018-09-30T02:31:14.742Z,99588.77
2018-09-30T02:32:17.390Z,99584.42
2018-09-30T02:33:19.982Z,99581.75
2018-09-30T02:34:22.558Z,99582.76
2018-09-30T02:35:25.206Z,99586.61
2018-09-30T02:36:27.755Z,99586.77
2018-09-30T02:37:30.422Z,99580.61
2018-09-30T02:38:33.003Z,99576.41
2018-09-30T02:39:35.571Z,99581.75
2018-09-30T02:40:38.147Z,99585.76
2018-09-30T02:41:40.745Z,99578.75
2018-09-30T02:42:43.403Z,99580.09
2018-09-30T02:43:45.974Z,99578.75
2018-09-30T02:44:48.522Z,99581.42
2018-09-30T02:45:51.098Z,99582.76
2018-09-30T02:46:53.654Z,99581.42
2018-09-30T02:47:56.347Z,99579.75
2018-09-30T02:48:58.906Z,99582.42
2018-09-30T02:50:01.478Z,99580.42
2018-09-30T02:51:04.066Z,99575.75
2018-09-30T02:52:06.714Z,99580.61
2018-09-30T02:53:09.278Z,99578.75
2018-09-30T02:54:11.866Z,99574.42
2018-09-30T02:55:14.466Z,99565.92
2018-09-30T02:56:17.054Z,99576.08
2018-09-30T02:57:19.617Z,99571.08
2018-09-30T02:58:22.278Z,99560.59
2018-09-30T02:59:24.834Z,99561.92
2018-09-30T03:00:27.410Z,99565.56
2018-09-30T03:01:30.100Z,99562.07
2018-09-30T03:02:32.687Z,99556.58
2018-09-30T03:03:35.358Z,99556.06
2018-09-30T03:04:37.962Z,99557.91
2018-09-30T03:05:40.534Z,99560.06
2018-09-30T03:06:48.647Z,99561.92
2018-09-30T03:07:56.768Z,99558.40
2018-09-30T03:09:04.978Z,99561.06
2018-09-30T03:10:07.594Z,99566.74
2018-09-30T03:11:10.154Z,99563.73
2018-09-30T03:12:12.747Z,99560.22
2018-09-30T03:13:15.397Z,99564.74
2018-09-30T03:14:18.142Z,99557.22
2018-09-30T03:15:20.722Z,99560.73
2018-09-30T03:16:23.274Z,99553.73
2018-09-30T03:17:25.854Z,99559.07
2018-09-30T03:18:28.413Z,99564.41
2018-09-30T03:19:31.065Z,99567.41
2018-09-30T03:20:33.708Z,99568.74
2018-09-30T03:21:36.274Z,99560.41
2018-09-30T03:22:38.864Z,99557.22
2018-09-30T03:23:41.426Z,99554.22
2018-09-30T03:24:44.118Z,99562.07
2018-09-30T03:25:46.694Z,99559.41
2018-09-30T03:26:49.263Z,99559.55
2018-09-30T03:27:51.830Z,99552.39
2018-09-30T03:28:54.402Z,99558.07
2018-09-30T03:29:57.054Z,99556.40
2018-09-30T03:30:59.623Z,99559.89
2018-09-30T03:32:02.219Z,99561.74
2018-09-30T03:33:05.434Z,99565.22
2018-09-30T03:34:08.006Z,99563.08
2018-09-30T03:35:10.569Z,99561.22
2018-09-30T03:36:13.149Z,99563.08
2018-09-30T03:37:15.726Z,99560.89
2018-09-30T03:38:18.290Z,99565.75
2018-09-30T03:39:20.856Z,99563.08
2018-09-30T03:40:23.578Z,99570.08
2018-09-30T03:41:26.161Z,99566.56
2018-09-30T03:42:28.722Z,99568.90
2018-09-30T03:43:31.302Z,99566.23
2018-09-30T03:44:33.846Z,99569.41
2018-09-30T03:45:36.510Z,99567.89
2018-09-30T03:46:39.100Z,99571.41
2018-09-30T03:47:41.646Z,99567.41
2018-09-30T03:48:44.227Z,99571.26
2018-09-30T03:49:46.810Z,99573.41
2018-09-30T03:50:49.481Z,99572.41
2018-09-30T03:51:52.098Z,99566.07
2018-09-30T03:52:54.659Z,99577.41
2018-09-30T03:53:57.258Z,99576.93
2018-09-30T03:54:59.813Z,99567.73
2018-09-30T03:56:02.461Z,99572.73
2018-09-30T03:57:05.050Z,99580.75
2018-09-30T03:58:07.658Z,99577.08
2018-09-30T03:59:10.210Z,99581.08
2018-09-30T04:00:12.894Z,99588.59
2018-09-30T04:01:15.590Z,99590.42
2018-09-30T04:02:18.176Z,99588.59
2018-09-30T04:03:20.766Z,99587.27
2018-09-30T04:04:23.342Z,99587.27
2018-09-30T04:05:25.890Z,99589.60
2018-09-30T04:06:28.579Z,99592.09
2018-09-30T04:07:31.142Z,99595.61
2018-09-30T04:08:33.698Z,99597.43
2018-09-30T04:09:36.360Z,99596.61
2018-09-30T04:10:38.898Z,99602.77
2018-09-30T04:11:41.591Z,99590.42
2018-09-30T04:12:44.166Z,99593.42
2018-09-30T04:13:46.723Z,99595.76
2018-09-30T04:14:49.334Z,99597.61
2018-09-30T04:15:51.953Z,99593.09
2018-09-30T04:16:54.590Z,99595.76
2018-09-30T04:17:57.188Z,99583.41
2018-09-30T04:18:59.742Z,99584.42
2018-09-30T04:20:02.307Z,99585.75
2018-09-30T04:21:04.870Z,99575.08
2018-09-30T04:22:07.563Z,99579.41
2018-09-30T04:23:10.147Z,99577.74
2018-09-30T04:24:12.710Z,99574.25
2018-09-30T04:25:15.291Z,99575.59
2018-09-30T04:26:17.858Z,99585.42
2018-09-30T04:27:20.554Z,99575.74
2018-09-30T04:28:23.130Z,99581.41
2018-09-30T04:29:25.739Z,99575.74
2018-09-30T04:30:28.289Z,99579.94
2018-09-30T04:31:31.067Z,99576.75
2018-09-30T04:32:33.715Z,99579.41
2018-09-30T04:33:36.271Z,99579.41
2018-09-30T04:34:38.866Z,99579.09
2018-09-30T04:35:41.440Z,99569.73
2018-09-30T04:36:44.022Z,99573.94
2018-09-30T04:37:46.690Z,99571.26
2018-09-30T04:38:49.318Z,99571.75
2018-09-30T04:39:51.893Z,99578.42
2018-09-30T04:40:54.446Z,99578.09
2018-09-30T04:41:57.077Z,99576.23
2018-09-30T04:42:59.826Z,99572.75
2018-09-30T04:44:02.413Z,99578.09
2018-09-30T04:45:05.022Z,99571.41
2018-09-30T04:46:07.575Z,99577.57
2018-09-30T04:47:10.189Z,99577.41
2018-09-30T04:48:12.834Z,99579.75
2018-09-30T04:49:15.418Z,99572.75
2018-09-30T04:50:17.977Z,99567.74
2018-09-30T04:51:20.542Z,99572.23
2018-09-30T04:52:23.122Z,99571.26
2018-09-30T04:53:25.894Z,99572.23
2018-09-30T04:54:28.469Z,99575.42
2018-09-30T04:55:31.050Z,99571.75
2018-09-30T04:56:33.640Z,99573.08
2018-09-30T04:57:36.189Z,99567.08
2018-09-30T04:58:38.884Z,99570.41
2018-09-30T04:59:41.442Z,99570.74
2018-09-30T05:00:44.057Z,99566.41
2018-09-30T05:01:46.614Z,99571.75
2018-09-30T05:02:49.170Z,99569.56
2018-09-30T05:03:51.754Z,99565.56
2018-09-30T05:04:54.322Z,99567.74
2018-09-30T05:05:57.277Z,99568.74
2018-09-30T05:06:59.859Z,99575.42
2018-09-30T05:08:02.435Z,99573.56
2018-09-30T05:09:06.442Z,99567.89
2018-09-30T05:10:09.006Z,99570.08
2018-09-30T05:11:11.570Z,99566.56
2018-09-30T05:12:14.134Z,99558.55
2018-09-30T05:13:16.726Z,99560.41
2018-09-30T05:14:19.396Z,99561.22
2018-09-30T05:15:22.002Z,99564.41
2018-09-30T05:16:24.738Z,99568.41
2018-09-30T05:17:27.354Z,99570.23
2018-09-30T05:18:29.935Z,99570.23
2018-09-30T05:19:32.682Z,99564.41
2018-09-30T05:20:35.258Z,99566.75
2018-09-30T05:21:37.830Z,99572.42
2018-09-30T05:22:40.394Z,99562.74
2018-09-30T05:23:43.000Z,99562.41
2018-09-30T05:24:45.680Z,99565.41
2018-09-30T05:25:48.307Z,99567.75
2018-09-30T05:26:50.840Z,99572.91
2018-09-30T05:27:53.414Z,99577.42
2018-09-30T05:28:55.978Z,99570.91
2018-09-30T05:29:58.673Z,99573.09
2018-09-30T05:31:01.312Z,99574.58
2018-09-30T05:32:03.902Z,99569.75
2018-09-30T05:33:06.526Z,99576.76
2018-09-30T05:34:09.098Z,99571.09
2018-09-30T05:35:11.763Z,99572.75
2018-09-30T05:36:14.362Z,99578.58
2018-09-30T05:37:17.010Z,99579.09
2018-09-30T05:38:19.512Z,99580.91
2018-09-30T05:39:22.062Z,99582.25
2018-09-30T05:40:24.730Z,99585.77
2018-09-30T05:41:27.290Z,99585.44
2018-09-30T05:42:29.863Z,99581.43
2018-09-30T05:43:32.434Z,99583.25
2018-09-30T05:44:35.006Z,99580.58
2018-09-30T05:45:37.676Z,99587.25
2018-09-30T05:46:40.226Z,99581.09
2018-09-30T05:47:42.791Z,99583.77
2018-09-30T05:48:45.366Z,99586.44
2018-09-30T05:49:47.962Z,99586.92
2018-09-30T05:50:50.510Z,99588.77
2018-09-30T05:51:53.069Z,99591.11
2018-09-30T05:52:55.636Z,99593.11
2018-09-30T05:53:58.222Z,99597.27
2018-09-30T05:55:00.794Z,99601.78
2018-09-30T05:56:03.441Z,99603.94
2018-09-30T05:57:05.994Z,99602.27
2018-09-30T05:58:08.585Z,99603.45
2018-09-30T05:59:11.170Z,99600.45
2018-09-30T06:00:13.738Z,99598.27
2018-09-30T06:01:16.418Z,99597.45
2018-09-30T06:02:19.050Z,99599.78
2018-09-30T06:03:21.624Z,99598.78
2018-09-30T06:04:24.243Z,99598.45
2018-09-30T06:05:26.818Z,99597.11
2018-09-30T06:06:29.506Z,99595.27
2018-09-30T06:07:32.247Z,99599.78
2018-09-30T06:08:34.834Z,99594.78
2018-09-30T06:09:37.471Z,99600.60
2018-09-30T06:10:40.000Z,99610.45
2018-09-30T06:11:44.234Z,99611.28
2018-09-30T06:12:46.811Z,99609.45
2018-09-30T06:13:49.426Z,99612.13
2018-09-30T06:14:51.976Z,99612.13
2018-09-30T06:15:54.629Z,99621.47
2018-09-30T06:16:57.330Z,99611.80
2018-09-30T06:17:59.914Z,99608.12
2018-09-30T06:19:02.515Z,99608.45
2018-09-30T06:20:05.446Z,99612.45
2018-09-30T06:21:08.022Z,99609.27
2018-09-30T06:22:10.686Z,99613.13
2018-09-30T06:23:13.247Z,99607.94
2018-09-30T06:24:15.876Z,99618.47
2018-09-30T06:25:18.398Z,99612.28
2018-09-30T06:26:20.990Z,99607.79
2018-09-30T06:27:23.909Z,99615.28
2018-09-30T06:28:26.514Z,99611.27
2018-09-30T06:29:29.087Z,99611.61
2018-09-30T06:30:31.668Z,99616.12
2018-09-30T06:31:34.275Z,99618.80
2018-09-30T06:32:36.958Z,99625.80
2018-09-30T06:33:39.538Z,99621.80
2018-09-30T06:34:42.103Z,99613.46
2018-09-30T06:35:44.650Z,99625.80
2018-09-30T06:36:47.326Z,99623.13
2018-09-30T06:37:50.014Z,99625.28
2018-09-30T06:38:52.694Z,99630.14
2018-09-30T06:39:55.250Z,99623.80
2018-09-30T06:40:57.846Z,99619.47
2018-09-30T06:42:00.422Z,99626.95
2018-09-30T06:43:03.154Z,99632.30
2018-09-30T06:44:06.218Z,99627.80
2018-09-30T06:45:08.865Z,99629.47
2018-09-30T06:46:11.395Z,99634.81
2018-09-30T06:47:13.962Z,99640.15
2018-09-30T06:48:16.614Z,99633.81
2018-09-30T06:49:19.186Z,99633.81
2018-09-30T06:50:21.754Z,99639.97
2018-09-30T06:51:24.334Z,99639.66
2018-09-30T06:52:26.914Z,99640.81
2018-09-30T06:53:29.702Z,99631.14
2018-09-30T06:54:32.283Z,99631.13
2018-09-30T06:55:34.860Z,99642.14
2018-09-30T06:56:37.438Z,99638.80
2018-09-30T06:57:40.669Z,99637.48
2018-09-30T06:58:43.473Z,99635.48
2018-09-30T06:59:46.289Z,99635.47
2018-09-30T07:00:49.100Z,99632.12
2018-09-30T07:01:51.803Z,99630.77
2018-09-30T07:03:21.861Z,99635.63
2018-09-30T07:04:29.506Z,99624.28
2018-09-30T07:05:32.085Z,99629.77
2018-09-30T07:06:34.662Z,99628.61
2018-09-30T07:07:37.214Z,99617.73
2018-09-30T07:08:39.774Z,99621.06
2018-09-30T07:09:42.580Z,99620.58
2018-09-30T07:10:45.185Z,99621.77
2018-09-30T07:11:47.722Z,99619.09
2018-09-30T07:12:50.277Z,99614.89
2018-09-30T07:13:52.834Z,99619.42
2018-09-30T07:14:55.510Z,99603.24
2018-09-30T07:15:58.070Z,99618.41
2018-09-30T07:17:00.643Z,99617.08
2018-09-30T07:18:03.206Z,99615.74
2018-09-30T07:19:05.847Z,99616.08
2018-09-30T07:20:08.523Z,99625.91
2018-09-30T07:21:11.094Z,99623.77
2018-09-30T07:22:13.697Z,99621.91
2018-09-30T07:23:16.234Z,99621.91
2018-09-30T07:24:18.798Z,99624.25
2018-09-30T07:25:21.473Z,99619.42
2018-09-30T07:26:24.026Z,99621.09
2018-09-30T07:27:26.590Z,99616.23
2018-09-30T07:28:29.134Z,99618.09
2018-09-30T07:29:31.685Z,99620.42
2018-09-30T07:30:34.366Z,99624.44
2018-09-30T07:31:36.940Z,99609.91
2018-09-30T07:32:39.522Z,99630.78
2018-09-30T07:33:42.103Z,99622.07
2018-09-30T07:34:44.646Z,99625.44
2018-09-30T07:35:47.302Z,99626.41
2018-09-30T07:37:27.939Z,99631.75
2018-09-30T07:38:30.494Z,99628.59
2018-09-30T07:39:33.100Z,99624.26
2018-09-30T07:40:35.669Z,99626.41
2018-09-30T07:43:34.066Z,99617.58
2018-09-30T07:44:36.598Z,99624.75
2018-09-30T07:45:39.162Z,99615.06
2018-09-30T07:46:41.781Z,99616.40
2018-09-30T07:47:44.386Z,99629.42
2018-09-30T07:48:46.930Z,99597.22
2018-09-30T07:49:49.518Z,99618.41
2018-09-30T07:50:52.074Z,99612.73
2018-09-30T07:51:54.615Z,99604.23
2018-09-30T07:52:57.262Z,99614.40
2018-09-30T07:53:59.830Z,99614.92
2018-09-30T07:55:02.470Z,99619.41
2018-09-30T07:56:05.054Z,99626.42
2018-09-30T07:57:07.642Z,99625.28
2018-09-30T07:58:10.305Z,99623.42
2018-09-30T07:59:12.871Z,99633.63
2018-09-30T08:00:15.418Z,99624.76
2018-09-30T08:01:18.146Z,99630.62
2018-09-30T08:02:20.704Z,99633.63
2018-09-30T08:03:23.350Z,99629.28
2018-09-30T08:04:25.930Z,99621.75
2018-09-30T08:05:28.481Z,99618.59
2018-09-30T08:06:31.120Z,99623.94
2018-09-30T08:07:33.659Z,99617.27
2018-09-30T08:08:36.318Z,99626.42
2018-09-30T08:09:38.862Z,99622.94
2018-09-30T08:10:41.426Z,99628.09
2018-09-30T08:11:43.977Z,99623.27
2018-09-30T08:12:46.530Z,99618.73
2018-09-30T08:13:49.088Z,99618.25
2018-09-30T08:14:51.673Z,99623.41
2018-09-30T08:15:54.235Z,99625.08
2018-09-30T08:16:56.966Z,99617.58
2018-09-30T08:17:59.518Z,99633.45
2018-09-30T08:19:02.170Z,99630.78
2018-09-30T08:20:04.806Z,99630.78
2018-09-30T08:21:07.554Z,99628.44
2018-09-30T08:22:10.112Z,99620.91
2018-09-30T08:23:12.669Z,99624.44
2018-09-30T08:24:15.489Z,99623.09
2018-09-30T08:25:17.926Z,99625.77
2018-09-30T08:26:20.482Z,99623.09
2018-09-30T08:27:23.065Z,99619.58
2018-09-30T08:28:25.615Z,99626.10
2018-09-30T08:29:28.264Z,99621.77
2018-09-30T08:30:30.830Z,99632.78
2018-09-30T08:31:33.386Z,99629.27
2018-09-30T08:32:35.952Z,99621.09
2018-09-30T08:33:38.534Z,99623.91
2018-09-30T08:34:41.298Z,99629.59
2018-09-30T08:35:48.358Z,99629.10
2018-09-30T08:36:50.906Z,99633.45
2018-09-30T08:37:58.927Z,99622.42
2018-09-30T08:39:01.482Z,99627.77
2018-09-30T08:40:04.311Z,99627.77
2018-09-30T08:41:10.948Z,99628.09
2018-09-30T08:42:13.487Z,99641.46
2018-09-30T08:43:16.310Z,99642.28
2018-09-30T08:44:18.934Z,99631.78
2018-09-30T08:45:21.554Z,99637.45
2018-09-30T08:46:24.114Z,99636.80
2018-09-30T08:47:26.721Z,99634.12
2018-09-30T08:48:29.254Z,99639.80
2018-09-30T08:49:31.806Z,99630.11
2018-09-30T08:50:34.462Z,99637.61
2018-09-30T08:51:37.026Z,99631.45
2018-09-30T08:52:39.582Z,99635.45
2018-09-30T08:53:42.137Z,99636.80
2018-09-30T08:54:44.710Z,99627.92
2018-09-30T08:55:47.388Z,99632.78
2018-09-30T08:56:49.938Z,99621.77
2018-09-30T08:57:52.494Z,99623.09
2018-09-30T08:58:55.071Z,99629.78
2018-09-30T08:59:57.630Z,99629.78
2018-09-30T09:01:00.286Z,99622.25
2018-09-30T09:02:02.838Z,99622.41
2018-09-30T09:03:05.548Z,99618.39
2018-09-30T09:04:08.146Z,99627.09
2018-09-30T09:05:10.714Z,99640.78
2018-09-30T09:06:13.362Z,99629.77
2018-09-30T09:07:15.915Z,99633.77
2018-09-30T09:08:18.458Z,99633.77
2018-09-30T09:09:21.114Z,99626.27
2018-09-30T09:10:23.682Z,99632.62
2018-09-30T09:11:26.365Z,99631.28
2018-09-30T09:12:28.918Z,99635.30
2018-09-30T09:13:31.490Z,99625.94
2018-09-30T09:14:34.050Z,99629.95
2018-09-30T09:15:36.720Z,99630.77
2018-09-30T09:16:39.340Z,99623.27
2018-09-30T09:17:41.913Z,99629.95
2018-09-30T09:18:44.640Z,99626.76
2018-09-30T09:19:47.216Z,99621.93
2018-09-30T09:20:49.802Z,99629.09
2018-09-30T09:21:52.462Z,99623.75
2018-09-30T09:22:55.031Z,99619.75
2018-09-30T09:23:57.607Z,99630.44
2018-09-30T09:25:00.254Z,99634.44
2018-09-30T09:26:02.822Z,99622.41
2018-09-30T09:27:05.520Z,99633.95
2018-09-30T09:28:08.273Z,99628.28
2018-09-30T09:29:10.814Z,99629.61
2018-09-30T09:30:13.379Z,99622.41
2018-09-30T09:31:15.922Z,99626.94
2018-09-30T09:32:18.591Z,99630.44
2018-09-30T09:33:21.194Z,99625.09
2018-09-30T09:34:23.758Z,99628.28
2018-09-30T09:35:26.422Z,99633.11
2018-09-30T09:36:31.050Z,99634.96
2018-09-30T09:37:33.774Z,99635.45
2018-09-30T09:38:36.355Z,99629.95
2018-09-30T09:39:38.919Z,99625.28
2018-09-30T09:40:41.495Z,99635.45
2018-09-30T09:41:44.038Z,99636.78
2018-09-30T09:42:46.598Z,99631.44
2018-09-30T09:43:49.166Z,99629.28
2018-09-30T09:44:51.730Z,99629.77
2018-09-30T09:45:54.275Z,99626.09
2018-09-30T09:46:56.881Z,99633.78
2018-09-30T09:47:59.502Z,99631.11
2018-09-30T09:49:02.395Z,99629.77
2018-09-30T09:50:05.621Z,99629.77
2018-09-30T09:51:08.174Z,99632.96
2018-09-30T09:52:10.722Z,99635.11
2018-09-30T09:53:13.394Z,99625.77
2018-09-30T09:54:15.950Z,99628.77
2018-09-30T09:55:18.519Z,99629.28
2018-09-30T09:56:21.170Z,99623.42
2018-09-30T09:57:23.827Z,99625.61
2018-09-30T09:58:26.518Z,99624.27
2018-09-30T09:59:29.282Z,99625.94
2018-09-30T10:00:37.130Z,99623.75
2018-09-30T10:01:39.698Z,99632.09
2018-09-30T10:02:42.260Z,99631.61
2018-09-30T10:03:44.906Z,99637.77
2018-09-30T10:04:47.479Z,99635.10
2018-09-30T10:05:50.046Z,99640.97
2018-09-30T10:06:52.622Z,99640.45
2018-09-30T10:07:55.178Z,99639.11
2018-09-30T10:08:58.235Z,99637.28
2018-09-30T10:10:00.790Z,99645.12
2018-09-30T10:11:03.401Z,99643.45
2018-09-30T10:12:05.997Z,99638.44
2018-09-30T10:13:09.023Z,99649.97
2018-09-30T10:14:11.822Z,99646.45
2018-09-30T10:15:14.374Z,99645.12
2018-09-30T10:16:17.038Z,99649.13
2018-09-30T10:17:19.614Z,99644.63
2018-09-30T10:18:22.158Z,99644.63
2018-09-30T10:19:24.903Z,99648.16
2018-09-30T10:20:27.694Z,99654.47
2018-09-30T10:21:30.282Z,99651.64
2018-09-30T10:22:32.834Z,99649.48
2018-09-30T10:23:35.463Z,99645.12
2018-09-30T10:24:38.122Z,99646.81
2018-09-30T10:25:40.702Z,99644.63
2018-09-30T10:26:43.268Z,99649.13
2018-09-30T10:27:45.822Z,99639.28
2018-09-30T10:28:48.380Z,99640.78
2018-09-30T10:29:51.058Z,99642.11
2018-09-30T10:30:53.607Z,99650.65
2018-09-30T10:31:56.175Z,99644.30
2018-09-30T10:32:58.742Z,99650.13
2018-09-30T10:34:01.338Z,99644.30
2018-09-30T10:35:04.134Z,99645.12
2018-09-30T10:36:06.691Z,99646.97
2018-09-30T10:37:09.246Z,99652.31
2018-09-30T10:38:11.822Z,99654.14
2018-09-30T10:39:14.502Z,99652.47
2018-09-30T10:40:17.058Z,99651.14
2018-09-30T10:41:19.634Z,99658.14
2018-09-30T10:42:22.214Z,99649.31
2018-09-30T10:43:24.809Z,99651.14
2018-09-30T10:44:27.366Z,99646.31
2018-09-30T10:45:30.022Z,99652.80
2018-09-30T10:46:32.590Z,99658.66
2018-09-30T10:47:35.173Z,99660.00
2018-09-30T10:48:37.743Z,99663.49
2018-09-30T10:49:40.306Z,99655.47
2018-09-30T10:50:42.981Z,99667.50
2018-09-30T10:51:45.530Z,99669.84
2018-09-30T10:52:48.107Z,99664.50
2018-09-30T10:53:50.670Z,99665.02
2018-09-30T10:54:53.243Z,99663.16
2018-09-30T10:55:55.894Z,99667.69
2018-09-30T10:56:58.475Z,99660.82
2018-09-30T10:58:01.026Z,99666.68
2018-09-30T10:59:03.607Z,99659.15
2018-09-30T11:00:06.295Z,99660.82
2018-09-30T11:01:09.056Z,99658.14
2018-09-30T11:02:11.724Z,99666.68
2018-09-30T11:03:14.285Z,99664.01
2018-09-30T11:04:16.842Z,99662.16
2018-09-30T11:05:19.422Z,99663.16
2018-09-30T11:06:22.094Z,99659.15
2018-09-30T11:07:24.694Z,99663.67
2018-09-30T11:08:27.246Z,99669.84
2018-09-30T11:09:29.905Z,99667.17
2018-09-30T11:10:32.587Z,99665.02
2018-09-30T11:11:35.151Z,99666.35
2018-09-30T11:12:37.694Z,99666.16
2018-09-30T11:13:40.253Z,99663.16
2018-09-30T11:14:42.814Z,99661.83
2018-09-30T11:15:45.386Z,99666.68
2018-09-30T11:16:48.047Z,99672.36
2018-09-30T11:17:50.624Z,99670.50
2018-09-30T11:18:53.181Z,99671.51
2018-09-30T11:19:55.814Z,99666.16
2018-09-30T11:20:58.366Z,99670.17
2018-09-30T11:22:01.049Z,99659.48
2018-09-30T11:23:03.598Z,99667.50
2018-09-30T11:24:06.274Z,99662.16
2018-09-30T11:25:08.846Z,99667.83
2018-09-30T11:26:11.478Z,99669.53
2018-09-30T11:27:14.130Z,99664.67
2018-09-30T11:28:16.714Z,99668.68
2018-09-30T11:29:19.302Z,99665.52
2018-09-30T11:30:21.866Z,99671.69
2018-09-30T11:31:24.462Z,99671.20
2018-09-30T11:32:27.206Z,99668.01
2018-09-30T11:33:30.077Z,99668.01
2018-09-30T11:34:32.646Z,99671.86
2018-09-30T11:35:35.530Z,99675.87
2018-09-30T11:36:38.106Z,99672.34
2018-09-30T11:37:41.001Z,99669.84
2018-09-30T11:38:43.557Z,99671.67
2018-09-30T11:39:46.154Z,99673.20
2018-09-30T11:40:48.734Z,99673.01
2018-09-30T11:41:51.297Z,99671.67
2018-09-30T11:42:53.998Z,99674.34
2018-09-30T11:43:56.554Z,99678.69
2018-09-30T11:44:59.118Z,99668.84
2018-09-30T11:46:01.687Z,99679.53
2018-09-30T11:47:04.268Z,99672.85
2018-09-30T11:48:06.935Z,99676.53
2018-09-30T11:49:09.898Z,99678.53
2018-09-30T11:50:12.551Z,99680.87
2018-09-30T11:51:15.106Z,99680.87
2018-09-30T11:52:17.650Z,99677.69
2018-09-30T11:53:20.517Z,99676.86
2018-09-30T11:54:23.098Z,99674.19
2018-09-30T11:55:25.646Z,99679.02
2018-09-30T11:56:28.210Z,99683.20
2018-09-30T11:57:30.778Z,99682.02
2018-09-30T11:58:33.554Z,99680.20
2018-09-30T11:59:36.100Z,99666.84
2018-09-30T12:00:38.658Z,99674.34
2018-09-30T12:01:41.215Z,99676.52
2018-09-30T12:02:43.778Z,99677.52
2018-09-30T12:03:46.430Z,99676.67
2018-09-30T12:04:49.002Z,99669.51
2018-09-30T12:05:51.562Z,99673.19
2018-09-30T12:06:54.103Z,99659.83
2018-09-30T12:07:56.649Z,99670.84
2018-09-30T12:08:59.310Z,99673.19
2018-09-30T12:10:01.923Z,99673.52
2018-09-30T12:11:04.518Z,99674.85
2018-09-30T12:12:07.957Z,99675.01
2018-09-30T12:13:10.510Z,99672.18
2018-09-30T12:14:13.202Z,99672.67
2018-09-30T12:15:15.815Z,99672.67
2018-09-30T12:16:18.384Z,99673.52
2018-09-30T12:17:20.958Z,99673.52
2018-09-30T12:18:23.556Z,99671.17
2018-09-30T12:19:26.298Z,99675.19
2018-09-30T12:20:28.870Z,99672.52
2018-09-30T12:21:31.425Z,99673.33